SIA449 WSSS-YPPH
Flight info
| Callsign | SIA449 |
|---|---|
| Flight time | N/A |
| Altitude | 41000 |
| Route | ANITO7A ANITO B470 PKP L764 LAMOB B469 TOPIR/N0485F400 L514 AVPAL Q38 JULIM |
| Aircraft | A359/H-SDE2E3GHIJ3J4J5LM1ORWXY/LB1D1 |
Departure
| Time | N/A |
|---|---|
| Airport | Singapore Changi Airport (WSSS) |
Arrival
| Time | 2026-05-03 22:20 |
|---|---|
| Airport | Perth International Airport (YPPH) |
| Time | Latitude | Longitude | Altitude | Speed | Heading |
|---|---|---|---|---|---|
| 2026-05-03 21:53 | -31.01510 | 116.45191 | 40729 ft | 460 kts | 202° |
| 2026-05-03 21:53 | -31.04531 | 116.44008 | 39899 ft | 464 kts | 202° |
| 2026-05-03 21:54 | -31.07615 | 116.42798 | 39036 ft | 469 kts | 202° |
| 2026-05-03 21:54 | -31.10731 | 116.41573 | 38152 ft | 471 kts | 201° |
| 2026-05-03 21:54 | -31.13799 | 116.40368 | 37448 ft | 469 kts | 201° |
| 2026-05-03 21:54 | -31.16898 | 116.39151 | 36755 ft | 468 kts | 201° |
| 2026-05-03 21:55 | -31.19992 | 116.37935 | 36038 ft | 468 kts | 201° |
| 2026-05-03 21:55 | -31.23092 | 116.36715 | 35304 ft | 469 kts | 200° |
| 2026-05-03 21:55 | -31.26154 | 116.35509 | 34487 ft | 471 kts | 200° |
| 2026-05-03 21:55 | -31.29275 | 116.34278 | 33564 ft | 474 kts | 200° |
| 2026-05-03 21:56 | -31.32407 | 116.33043 | 32678 ft | 475 kts | 200° |
| 2026-05-03 21:56 | -31.35562 | 116.31814 | 31761 ft | 477 kts | 198° |
| 2026-05-03 21:56 | -31.38855 | 116.31179 | 30813 ft | 483 kts | 183° |
| 2026-05-03 21:56 | -31.42214 | 116.31591 | 29711 ft | 489 kts | 167° |
| 2026-05-03 21:57 | -31.45351 | 116.33049 | 28815 ft | 492 kts | 152° |
| 2026-05-03 21:57 | -31.48063 | 116.35469 | 28172 ft | 490 kts | 137° |
| 2026-05-03 21:57 | -31.50128 | 116.38644 | 27548 ft | 488 kts | 121° |
| 2026-05-03 21:57 | -31.51369 | 116.42273 | 26993 ft | 485 kts | 105° |
| 2026-05-03 21:58 | -31.51709 | 116.46201 | 26731 ft | 487 kts | 89° |
| 2026-05-03 21:58 | -31.51136 | 116.50138 | 26481 ft | 492 kts | 73° |
| 2026-05-03 21:58 | -31.49687 | 116.53784 | 26238 ft | 494 kts | 58° |
| 2026-05-03 21:58 | -31.47473 | 116.56852 | 26000 ft | 493 kts | 42° |
| 2026-05-03 21:59 | -31.44695 | 116.59101 | 25764 ft | 492 kts | 26° |
| 2026-05-03 21:59 | -31.41477 | 116.60436 | 25525 ft | 490 kts | 11° |
| 2026-05-03 21:59 | -31.38090 | 116.60725 | 25293 ft | 486 kts | 355° |
| 2026-05-03 21:59 | -31.34792 | 116.59954 | 25055 ft | 481 kts | 339° |
| 2026-05-03 22:00 | -31.31857 | 116.58219 | 24819 ft | 475 kts | 323° |
| 2026-05-03 22:00 | -31.29437 | 116.55626 | 24602 ft | 469 kts | 307° |
| 2026-05-03 22:00 | -31.27449 | 116.52612 | 24389 ft | 467 kts | 303° |
| 2026-05-03 22:00 | -31.25774 | 116.49371 | 24242 ft | 463 kts | 294° |
| 2026-05-03 22:01 | -31.24679 | 116.45850 | 24231 ft | 458 kts | 280° |
| 2026-05-03 22:01 | -31.24424 | 116.42214 | 24231 ft | 452 kts | 264° |
| 2026-05-03 22:01 | -31.25063 | 116.38644 | 24232 ft | 448 kts | 248° |
| 2026-05-03 22:01 | -31.26549 | 116.35459 | 24228 ft | 445 kts | 232° |
| 2026-05-03 22:02 | -31.28750 | 116.32933 | 24229 ft | 444 kts | 215° |
| 2026-05-03 22:02 | -31.31484 | 116.31263 | 24189 ft | 444 kts | 199° |
| 2026-05-03 22:02 | -31.34465 | 116.30572 | 23990 ft | 443 kts | 184° |
| 2026-05-03 22:02 | -31.37537 | 116.30923 | 23733 ft | 446 kts | 167° |
| 2026-05-03 22:03 | -31.40414 | 116.32313 | 23458 ft | 449 kts | 151° |
| 2026-05-03 22:03 | -31.42856 | 116.34601 | 23205 ft | 450 kts | 137° |
| 2026-05-03 22:03 | -31.45206 | 116.37008 | 22931 ft | 446 kts | 148° |
| 2026-05-03 22:03 | -31.47936 | 116.38570 | 22682 ft | 440 kts | 164° |
| 2026-05-03 22:04 | -31.50930 | 116.39162 | 22277 ft | 430 kts | 180° |
| 2026-05-03 22:04 | -31.53848 | 116.38694 | 21862 ft | 419 kts | 197° |
| 2026-05-03 22:04 | -31.56414 | 116.37247 | 21387 ft | 412 kts | 214° |
| 2026-05-03 22:04 | -31.58462 | 116.34923 | 20825 ft | 410 kts | 232° |
| 2026-05-03 22:05 | -31.59771 | 116.31961 | 20254 ft | 409 kts | 248° |
| 2026-05-03 22:05 | -31.60798 | 116.28846 | 19679 ft | 405 kts | 244° |
| 2026-05-03 22:05 | -31.62109 | 116.25941 | 19102 ft | 401 kts | 236° |
| 2026-05-03 22:05 | -31.63656 | 116.23265 | 18453 ft | 399 kts | 231° |
| 2026-05-03 22:06 | -31.65369 | 116.20707 | 17747 ft | 397 kts | 229° |
| 2026-05-03 22:06 | -31.67161 | 116.18246 | 17080 ft | 395 kts | 227° |
| 2026-05-03 22:06 | -31.68999 | 116.15839 | 16417 ft | 394 kts | 226° |
| 2026-05-03 22:06 | -31.70824 | 116.13498 | 15751 ft | 393 kts | 225° |
| 2026-05-03 22:07 | -31.72688 | 116.11141 | 15075 ft | 392 kts | 225° |
| 2026-05-03 22:07 | -31.74689 | 116.08964 | 14395 ft | 389 kts | 214° |
| 2026-05-03 22:07 | -31.77088 | 116.07534 | 13669 ft | 385 kts | 195° |
| 2026-05-03 22:07 | -31.79366 | 116.06898 | 13066 ft | 382 kts | 189° |
| 2026-05-03 22:08 | -31.81995 | 116.06529 | 12413 ft | 377 kts | 179° |
| 2026-05-03 22:08 | -31.84533 | 116.07013 | 12100 ft | 361 kts | 161° |
| 2026-05-03 22:08 | -31.86814 | 116.08058 | 11986 ft | 342 kts | 156° |
| 2026-05-03 22:08 | -31.88915 | 116.09132 | 11888 ft | 324 kts | 155° |
| 2026-05-03 22:09 | -31.90933 | 116.10172 | 11778 ft | 308 kts | 155° |
| 2026-05-03 22:09 | -31.92856 | 116.11161 | 11667 ft | 294 kts | 155° |
| 2026-05-03 22:09 | -31.94087 | 116.11793 | 11594 ft | 285 kts | 155° |
| 2026-05-03 22:10 | -31.97589 | 116.13587 | 11332 ft | 267 kts | 155° |
| 2026-05-03 22:10 | -31.99315 | 116.14387 | 11003 ft | 267 kts | 158° |
| 2026-05-03 22:10 | -32.01062 | 116.15140 | 10666 ft | 267 kts | 158° |
| 2026-05-03 22:10 | -32.02803 | 116.15892 | 10365 ft | 266 kts | 158° |
| 2026-05-03 22:11 | -32.04562 | 116.16661 | 10035 ft | 275 kts | 158° |
| 2026-05-03 22:11 | -32.06410 | 116.17390 | 9699 ft | 283 kts | 165° |
| 2026-05-03 22:11 | -32.08377 | 116.17491 | 9413 ft | 285 kts | 185° |
| 2026-05-03 22:11 | -32.10304 | 116.17059 | 8908 ft | 287 kts | 191° |
| 2026-05-03 22:12 | -32.12257 | 116.16508 | 8390 ft | 289 kts | 191° |
| 2026-05-03 22:12 | -32.14199 | 116.15956 | 8066 ft | 283 kts | 191° |
| 2026-05-03 22:12 | -32.16113 | 116.15408 | 7696 ft | 282 kts | 193° |
| 2026-05-03 22:12 | -32.17910 | 116.14481 | 7363 ft | 285 kts | 213° |
| 2026-05-03 22:13 | -32.19232 | 116.12752 | 7042 ft | 287 kts | 241° |
| 2026-05-03 22:13 | -32.19746 | 116.10552 | 6857 ft | 278 kts | 265° |
| 2026-05-03 22:13 | -32.19819 | 116.08302 | 6679 ft | 268 kts | 270° |
| 2026-05-03 22:13 | -32.19829 | 116.06143 | 6519 ft | 257 kts | 270° |
| 2026-05-03 22:14 | -32.19840 | 116.04067 | 6350 ft | 248 kts | 270° |
| 2026-05-03 22:14 | -32.19674 | 116.02080 | 6050 ft | 245 kts | 282° |
| 2026-05-03 22:14 | -32.19278 | 116.00130 | 5754 ft | 243 kts | 285° |
| 2026-05-03 22:14 | -32.18848 | 115.98202 | 5457 ft | 240 kts | 285° |
| 2026-05-03 22:15 | -32.18422 | 115.96290 | 5151 ft | 239 kts | 285° |
| 2026-05-03 22:15 | -32.18007 | 115.94414 | 4838 ft | 238 kts | 285° |
| 2026-05-03 22:15 | -32.17540 | 115.92549 | 4555 ft | 234 kts | 294° |
| 2026-05-03 22:15 | -32.16473 | 115.91191 | 4303 ft | 225 kts | 336° |
| 2026-05-03 22:16 | -32.14984 | 115.90707 | 4026 ft | 222 kts | 355° |
| 2026-05-03 22:16 | -32.13452 | 115.90778 | 3706 ft | 219 kts | 15° |
| 2026-05-03 22:16 | -32.12010 | 115.91254 | 3373 ft | 218 kts | 19° |
| 2026-05-03 22:16 | -32.10529 | 115.91700 | 3054 ft | 218 kts | 16° |
| 2026-05-03 22:17 | -32.09065 | 115.92103 | 2765 ft | 211 kts | 17° |
| 2026-05-03 22:17 | -32.07653 | 115.92519 | 2495 ft | 206 kts | 18° |
| 2026-05-03 22:17 | -32.06283 | 115.92922 | 2220 ft | 199 kts | 18° |
| 2026-05-03 22:17 | -32.04994 | 115.93297 | 1927 ft | 185 kts | 18° |
| 2026-05-03 22:18 | -32.03785 | 115.93650 | 1704 ft | 173 kts | 19° |
| 2026-05-03 22:18 | -32.02653 | 115.93981 | 1466 ft | 162 kts | 19° |
| 2026-05-03 22:18 | -32.01605 | 115.94288 | 1271 ft | 152 kts | 20° |
| 2026-05-03 22:18 | -32.00601 | 115.94572 | 1051 ft | 144 kts | 19° |
| 2026-05-03 22:19 | -31.99643 | 115.94837 | 828 ft | 137 kts | 19° |
| 2026-05-03 22:19 | -31.98744 | 115.95101 | 726 ft | 132 kts | 18° |
| 2026-05-03 22:19 | -31.97873 | 115.95366 | 585 ft | 130 kts | 16° |
| 2026-05-03 22:19 | -31.96974 | 115.95638 | 366 ft | 130 kts | 17° |
| 2026-05-03 22:20 | -31.96103 | 115.95893 | 169 ft | 127 kts | 15° |
| 2026-05-03 22:20 | -31.95261 | 115.96136 | 89 ft | 122 kts | 15° |
| 2026-05-03 22:20 | -31.94534 | 115.96357 | 66 ft | 80 kts | 14° |
| 2026-05-03 22:20 | -31.94264 | 115.96439 | 66 ft | 17 kts | 14° |
| 2026-05-03 22:21 | -31.94114 | 115.96483 | 71 ft | 37 kts | 14° |
| 2026-05-03 22:21 | -31.93768 | 115.96583 | 71 ft | 57 kts | 14° |
| 2026-05-03 22:21 | -31.93503 | 115.96683 | 64 ft | 26 kts | 39° |
| 2026-05-03 22:21 | -31.93404 | 115.96857 | 63 ft | 26 kts | 58° |
| 2026-05-03 22:22 | -31.93401 | 115.97036 | 66 ft | 24 kts | 140° |
| 2026-05-03 22:22 | -31.93549 | 115.97145 | 64 ft | 27 kts | 149° |
| 2026-05-03 22:22 | -31.93714 | 115.97261 | 68 ft | 29 kts | 149° |
| 2026-05-03 22:22 | -31.93862 | 115.97353 | 65 ft | 20 kts | 173° |
| 2026-05-03 22:23 | -31.93945 | 115.97257 | 66 ft | 15 kts | 229° |
| 2026-05-03 22:23 | -31.94010 | 115.97225 | 67 ft | 8 kts | 195° |
| 2026-05-03 22:23 | -31.94027 | 115.97223 | 61 ft | 0 kts | 186° |
| 2026-05-03 22:23 | -31.94063 | 115.97224 | 74 ft | 0 kts | 174° |
| 2026-05-03 22:24 | -31.94068 | 115.97225 | 60 ft | 0 kts | 175° |